Time;durP1;ratioP1;P1;durP2;ratioP2;P2;SDS_P1;SDS_P2;PMS_P1;PMS_P2;Temp;Humidity;BMP_temperature;BMP_pressure;BME280_temperature;BME280_humidity;BME280_pressure;Samples;Min_cycle;Max_cycle;Signal;HPM_P1;HPM_P2
2023/03/09 00:00:34;;;;;;;6.50;5.55;;;;;;;;;;4999591;28;20038;-69
2023/03/09 00:03:00;;;;;;;5.85;5.43;;;;;;;;;;4997417;28;20026;-68
2023/03/09 00:05:25;;;;;;;7.03;5.53;;;;;;;;;;5003446;28;20053;-67
2023/03/09 00:07:54;;;;;;;10.50;5.60;;;;;;;;;;5004364;28;20034;-69
2023/03/09 00:10:20;;;;;;;6.97;5.40;;;;;;;;;;5002357;28;20037;-70
2023/03/09 00:12:45;;;;;;;6.68;5.30;;;;;;;;;;5006861;28;20652;-69
2023/03/09 00:15:11;;;;;;;6.82;5.22;;;;;;;;;;5005536;28;20414;-69
2023/03/09 00:17:36;;;;;;;7.88;4.93;;;;;;;;;;5005738;28;20034;-66
2023/03/09 00:20:19;;;;;;;5.78;5.20;;;;;;;;;;4998291;28;20041;-69
2023/03/09 00:22:49;;;;;;;6.45;5.10;;;;;;;;;;5004947;28;20505;-67
2023/03/09 00:25:16;;;;;;;8.65;5.43;;;;;;;;;;5004910;28;20054;-68
2023/03/09 00:27:45;;;;;;;6.72;5.22;;;;;;;;;;5007846;28;20403;-69
2023/03/09 00:30:12;;;;;;;6.10;5.50;;;;;;;;;;5002828;28;20628;-68
2023/03/09 00:32:38;;;;;;;7.82;5.20;;;;;;;;;;5007501;28;20080;-71
2023/03/09 00:35:05;;;;;;;6.53;5.93;;;;;;;;;;5006171;28;20045;-71
2023/03/09 00:37:31;;;;;;;6.18;5.57;;;;;;;;;;5005083;28;20501;-68
2023/03/09 00:39:57;;;;;;;6.18;5.65;;;;;;;;;;5003638;28;20350;-69
2023/03/09 00:42:22;;;;;;;7.68;6.10;;;;;;;;;;5004641;28;20034;-68
2023/03/09 00:44:48;;;;;;;5.72;5.32;;;;;;;;;;5008154;28;20397;-68
2023/03/09 00:47:14;;;;;;;5.20;4.68;;;;;;;;;;4999834;28;20042;-70
2023/03/09 00:49:40;;;;;;;5.40;5.00;;;;;;;;;;5006274;28;20121;-67
2023/03/09 00:52:05;;;;;;;5.07;4.68;;;;;;;;;;5006800;28;20489;-67
2023/03/09 00:54:31;;;;;;;5.32;4.93;;;;;;;;;;5001115;28;20034;-68
2023/03/09 00:56:57;;;;;;;5.32;4.90;;;;;;;;;;5008253;28;20041;-70
2023/03/09 00:59:22;;;;;;;5.40;4.90;;;;;;;;;;5007095;28;20367;-69
2023/03/09 01:01:48;;;;;;;5.45;4.90;;;;;;;;;;5003788;28;20042;-67
2023/03/09 01:04:14;;;;;;;4.90;4.60;;;;;;;;;;4996267;28;20497;-69
2023/03/09 01:06:39;;;;;;;5.22;4.70;;;;;;;;;;5005581;28;20034;-68
2023/03/09 01:09:05;;;;;;;4.90;4.50;;;;;;;;;;5003562;28;20048;-67
2023/03/09 01:11:31;;;;;;;6.03;4.30;;;;;;;;;;5003539;28;20049;-69
2023/03/09 01:13:57;;;;;;;5.30;5.00;;;;;;;;;;4995243;28;20033;-68
2023/03/09 01:16:22;;;;;;;5.05;4.75;;;;;;;;;;5008945;28;20033;-69
2023/03/09 01:18:48;;;;;;;4.70;4.40;;;;;;;;;;5002390;28;20230;-69
2023/03/09 01:21:14;;;;;;;5.10;4.80;;;;;;;;;;5005665;28;20030;-68
2023/03/09 01:23:40;;;;;;;4.60;4.30;;;;;;;;;;5004012;28;20034;-69
2023/03/09 01:26:07;;;;;;;4.32;4.13;;;;;;;;;;5002962;28;20042;-67
2023/03/09 01:28:35;;;;;;;3.50;3.40;;;;;;;;;;4995114;28;20050;-71
2023/03/09 01:31:15;;;;;;;3.80;3.58;;;;;;;;;;5003147;28;20450;-68
2023/03/09 01:33:41;;;;;;;;;;;;;;;;;;5005807;28;20105;-68
2023/03/09 01:36:11;;;;;;;3.90;3.70;;;;;;;;;;5003950;28;19963;-70
2023/03/09 01:38:37;;;;;;;4.15;3.95;;;;;;;;;;5005530;28;20123;-71
2023/03/09 01:41:03;;;;;;;4.05;3.85;;;;;;;;;;4990888;28;20334;-70
2023/03/09 01:43:34;;;;;;;3.67;3.58;;;;;;;;;;4989711;28;20038;-70
2023/03/09 01:46:21;;;;;;;3.60;3.50;;;;;;;;;;4987375;28;20038;-67
2023/03/09 01:49:28;;;;;;;3.67;3.47;;;;;;;;;;4990356;28;20042;-70
2023/03/09 01:52:21;;;;;;;3.60;3.40;;;;;;;;;;5003347;28;20512;-69
2023/03/09 01:54:56;;;;;;;4.20;4.00;;;;;;;;;;5002711;28;20285;-70
2023/03/09 01:57:30;;;;;;;4.28;4.07;;;;;;;;;;5000227;28;20097;-70
2023/03/09 02:00:11;;;;;;;4.10;3.90;;;;;;;;;;5004893;28;20030;-70
2023/03/09 02:03:03;;;;;;;4.35;3.95;;;;;;;;;;5005438;28;20037;-71
2023/03/09 02:05:37;;;;;;;4.47;4.05;;;;;;;;;;5004906;28;20048;-70
2023/03/09 02:08:04;;;;;;;4.45;4.20;;;;;;;;;;5004795;28;20176;-69
2023/03/09 02:10:54;;;;;;;4.35;4.15;;;;;;;;;;5002835;28;20049;-68
2023/03/09 02:13:24;;;;;;;3.90;3.70;;;;;;;;;;5005326;28;20025;-68
2023/03/09 02:15:49;;;;;;;3.60;3.40;;;;;;;;;;5001846;28;20034;-69
2023/03/09 02:18:15;;;;;;;3.88;3.70;;;;;;;;;;5002996;28;20037;-69
2023/03/09 02:21:03;;;;;;;4.03;3.72;;;;;;;;;;5001019;28;20065;-69
2023/03/09 02:23:36;;;;;;;4.32;4.10;;;;;;;;;;5002452;28;20107;-70
2023/03/09 02:26:14;;;;;;;3.97;3.80;;;;;;;;;;4999592;28;20121;-68
2023/03/09 02:28:39;;;;;;;3.95;3.85;;;;;;;;;;5003529;28;20041;-69
2023/03/09 02:31:06;;;;;;;3.97;3.78;;;;;;;;;;5004887;28;20448;-69
2023/03/09 02:33:32;;;;;;;4.20;3.90;;;;;;;;;;5001202;28;20076;-70
2023/03/09 02:36:00;;;;;;;4.68;4.38;;;;;;;;;;5004565;28;20080;-70
2023/03/09 02:38:28;;;;;;;4.38;3.88;;;;;;;;;;5004908;28;20038;-70
2023/03/09 02:40:57;;;;;;;4.28;4.07;;;;;;;;;;5001782;28;20402;-71
2023/03/09 02:43:33;;;;;;;4.47;4.25;;;;;;;;;;4993514;28;20291;-70
2023/03/09 02:45:59;;;;;;;4.32;4.13;;;;;;;;;;5005763;28;20048;-71
2023/03/09 02:48:25;;;;;;;4.20;4.00;;;;;;;;;;5003932;28;20037;-68
2023/03/09 02:50:50;;;;;;;4.25;4.05;;;;;;;;;;5004247;28;20034;-70
2023/03/09 02:53:16;;;;;;;4.53;4.15;;;;;;;;;;5003039;28;20148;-69
2023/03/09 02:55:42;;;;;;;4.10;3.92;;;;;;;;;;5005537;28;20084;-70
2023/03/09 02:58:10;;;;;;;4.40;4.20;;;;;;;;;;5004896;28;20100;-67
2023/03/09 03:00:35;;;;;;;4.10;3.90;;;;;;;;;;5002478;28;20050;-67
2023/03/09 03:03:01;;;;;;;4.20;3.90;;;;;;;;;;5004091;28;20034;-69
2023/03/09 03:05:29;;;;;;;4.22;4.00;;;;;;;;;;5001464;28;20042;-70
2023/03/09 03:07:55;;;;;;;4.55;4.25;;;;;;;;;;5003430;28;20212;-68
2023/03/09 03:10:22;;;;;;;4.38;4.10;;;;;;;;;;5004158;28;20048;-67
2023/03/09 03:12:48;;;;;;;4.68;4.47;;;;;;;;;;5005798;28;20033;-68
2023/03/09 03:15:13;;;;;;;4.45;4.15;;;;;;;;;;5009686;28;20047;-69
2023/03/09 03:17:39;;;;;;;4.47;4.22;;;;;;;;;;5007226;28;20042;-68
2023/03/09 03:20:14;;;;;;;4.30;4.10;;;;;;;;;;5004163;28;20073;-66
2023/03/09 03:22:42;;;;;;;4.63;4.30;;;;;;;;;;5006042;28;20063;-71
2023/03/09 03:25:09;;;;;;;5.95;4.00;;;;;;;;;;5005068;28;20034;-70
2023/03/09 03:27:40;;;;;;;4.57;4.18;;;;;;;;;;5007608;28;20045;-69
2023/03/09 03:30:07;;;;;;;4.25;3.95;;;;;;;;;;5005034;28;20030;-71
2023/03/09 03:32:34;;;;;;;4.78;4.38;;;;;;;;;;5008258;28;20069;-69
2023/03/09 03:35:00;;;;;;;4.32;4.13;;;;;;;;;;5005949;28;20043;-71
2023/03/09 03:37:27;;;;;;;5.25;4.85;;;;;;;;;;5005541;28;20053;-68
2023/03/09 03:39:52;;;;;;;4.47;4.18;;;;;;;;;;5006567;28;20843;-71
2023/03/09 03:42:18;;;;;;;4.63;4.32;;;;;;;;;;5005312;28;20452;-70
2023/03/09 03:44:44;;;;;;;4.50;4.20;;;;;;;;;;5006953;28;20061;-69
2023/03/09 03:47:11;;;;;;;4.93;4.00;;;;;;;;;;5008211;28;20042;-68
2023/03/09 03:49:37;;;;;;;4.78;4.07;;;;;;;;;;5005874;28;20460;-71
2023/03/09 03:52:05;;;;;;;4.20;3.90;;;;;;;;;;5009156;28;20052;-68
2023/03/09 03:54:31;;;;;;;3.97;3.80;;;;;;;;;;5006057;28;20120;-71
2023/03/09 03:56:58;;;;;;;4.07;3.83;;;;;;;;;;5003276;28;20113;-69
2023/03/09 03:59:24;;;;;;;4.07;3.88;;;;;;;;;;5007952;28;20133;-67
2023/03/09 04:01:49;;;;;;;4.25;4.05;;;;;;;;;;5004416;28;20038;-67
2023/03/09 04:04:15;;;;;;;4.22;4.03;;;;;;;;;;5006616;28;20472;-69
2023/03/09 04:06:48;;;;;;;3.95;3.75;;;;;;;;;;5004757;28;20496;-70
2023/03/09 04:09:15;;;;;;;3.65;3.45;;;;;;;;;;5005162;28;20048;-70
2023/03/09 04:11:41;;;;;;;3.95;3.65;;;;;;;;;;5004843;28;20129;-68
2023/03/09 04:14:07;;;;;;;3.88;3.55;;;;;;;;;;5001015;28;20093;-70
2023/03/09 04:16:35;;;;;;;5.05;4.03;;;;;;;;;;5000826;28;20412;-71
2023/03/09 04:19:00;;;;;;;4.10;3.80;;;;;;;;;;4998627;28;20048;-71
2023/03/09 04:21:28;;;;;;;4.30;3.92;;;;;;;;;;5005464;28;20508;-65
2023/03/09 04:23:53;;;;;;;4.30;3.90;;;;;;;;;;5007231;28;20069;-68
2023/03/09 04:26:20;;;;;;;5.63;4.28;;;;;;;;;;5008553;28;20040;-71
2023/03/09 04:28:54;;;;;;;5.50;4.10;;;;;;;;;;5006905;28;20034;-66
2023/03/09 04:31:20;;;;;;;5.38;4.32;;;;;;;;;;5005334;28;20370;-72
2023/03/09 04:33:46;;;;;;;4.53;4.13;;;;;;;;;;5008758;28;20112;-68
2023/03/09 04:36:16;;;;;;;4.78;4.13;;;;;;;;;;5006541;28;20029;-71
2023/03/09 04:38:45;;;;;;;4.53;3.97;;;;;;;;;;5005852;28;20522;-67
2023/03/09 04:41:12;;;;;;;4.30;4.00;;;;;;;;;;4990442;28;20281;-69
2023/03/09 04:43:39;;;;;;;5.68;4.28;;;;;;;;;;4989479;28;20061;-71
2023/03/09 04:46:05;;;;;;;6.10;4.45;;;;;;;;;;4993940;28;20030;-69
2023/03/09 04:48:32;;;;;;;5.40;4.63;;;;;;;;;;5007135;28;20042;-68
2023/03/09 04:50:58;;;;;;;8.13;4.25;;;;;;;;;;5002533;28;20037;-69
2023/03/09 04:53:24;;;;;;;7.20;4.70;;;;;;;;;;5005121;28;20116;-70
2023/03/09 04:55:50;;;;;;;7.53;4.45;;;;;;;;;;5007389;28;20259;-69
2023/03/09 04:58:16;;;;;;;7.97;4.72;;;;;;;;;;5007599;28;20121;-71
2023/03/09 05:00:42;;;;;;;9.65;4.97;;;;;;;;;;5002132;28;20048;-70
2023/03/09 05:03:10;;;;;;;11.65;4.95;;;;;;;;;;5003770;28;20034;-69
2023/03/09 05:05:41;;;;;;;8.15;4.50;;;;;;;;;;5004343;28;20044;-70
2023/03/09 05:08:07;;;;;;;8.45;5.15;;;;;;;;;;5006083;28;20042;-69
2023/03/09 05:10:33;;;;;;;12.43;4.72;;;;;;;;;;5000217;28;21102;-70
2023/03/09 05:12:59;;;;;;;6.53;4.40;;;;;;;;;;4999339;28;20088;-71
2023/03/09 05:15:27;;;;;;;7.90;4.72;;;;;;;;;;5005055;28;20124;-71
2023/03/09 05:17:53;;;;;;;6.97;4.60;;;;;;;;;;5005588;28;20138;-67
2023/03/09 05:20:19;;;;;;;9.18;4.65;;;;;;;;;;4995294;28;20057;-68
2023/03/09 05:22:54;;;;;;;7.85;4.60;;;;;;;;;;5000968;28;20049;-68
2023/03/09 05:25:21;;;;;;;9.70;5.10;;;;;;;;;;5003807;28;20030;-69
2023/03/09 05:27:46;;;;;;;6.07;4.32;;;;;;;;;;5005265;28;20143;-68
2023/03/09 05:30:12;;;;;;;8.10;5.35;;;;;;;;;;4992632;28;20515;-71
2023/03/09 05:32:39;;;;;;;9.15;4.20;;;;;;;;;;5004049;28;20045;-68
2023/03/09 05:35:07;;;;;;;10.68;5.10;;;;;;;;;;5001336;28;20510;-71
2023/03/09 05:37:34;;;;;;;11.20;4.93;;;;;;;;;;5002112;28;20133;-70
2023/03/09 05:40:08;;;;;;;9.93;4.68;;;;;;;;;;5005864;28;20113;-70
2023/03/09 05:42:36;;;;;;;6.72;4.60;;;;;;;;;;5004290;28;20041;-68
2023/03/09 05:45:04;;;;;;;9.27;5.03;;;;;;;;;;5000579;28;20073;-70
2023/03/09 05:47:31;;;;;;;7.70;5.20;;;;;;;;;;5005209;28;20041;-70
2023/03/09 05:49:57;;;;;;;5.80;4.28;;;;;;;;;;5004392;28;20052;-71
2023/03/09 05:52:23;;;;;;;6.95;4.68;;;;;;;;;;5005664;28;20038;-70
2023/03/09 05:54:48;;;;;;;12.10;4.75;;;;;;;;;;5003244;28;20461;-70
2023/03/09 05:57:16;;;;;;;9.63;4.82;;;;;;;;;;5002450;28;20544;-71
2023/03/09 05:59:43;;;;;;;6.13;4.80;;;;;;;;;;4986676;28;20566;-72
2023/03/09 06:02:09;;;;;;;9.27;5.00;;;;;;;;;;4987737;28;20106;-71
2023/03/09 06:04:38;;;;;;;7.97;4.85;;;;;;;;;;4992301;28;20034;-72
2023/03/09 06:07:07;;;;;;;8.85;4.65;;;;;;;;;;4990251;28;20040;-70
2023/03/09 06:09:38;;;;;;;13.13;4.50;;;;;;;;;;5002305;28;20113;-71
2023/03/09 06:12:07;;;;;;;7.60;4.90;;;;;;;;;;5003466;28;20022;-71
2023/03/09 06:14:33;;;;;;;6.55;4.70;;;;;;;;;;5002230;28;20022;-70
2023/03/09 06:16:59;;;;;;;11.73;5.53;;;;;;;;;;5000284;28;20034;-71
2023/03/09 06:19:25;;;;;;;12.98;5.60;;;;;;;;;;5002724;28;20048;-69
2023/03/09 06:21:52;;;;;;;9.85;5.30;;;;;;;;;;5002262;28;20034;-71
2023/03/09 06:24:18;;;;;;;9.38;5.63;;;;;;;;;;4998763;28;20042;-71
2023/03/09 06:26:43;;;;;;;8.15;5.90;;;;;;;;;;4996527;28;20038;-70
2023/03/09 06:29:13;;;;;;;7.40;4.65;;;;;;;;;;4997535;28;20065;-70
2023/03/09 06:31:43;;;;;;;;;;;;;;;;;;4994226;28;20061;-69
2023/03/09 06:34:09;;;;;;;10.65;5.60;;;;;;;;;;4999007;28;20357;-72
2023/03/09 06:36:35;;;;;;;10.20;5.28;;;;;;;;;;5005471;28;20499;-72
2023/03/09 06:39:00;;;;;;;6.57;4.95;;;;;;;;;;5005187;28;20033;-72
2023/03/09 06:41:31;;;;;;;7.72;5.03;;;;;;;;;;5002842;28;20104;-73
2023/03/09 06:44:06;;;;;;;8.40;4.97;;;;;;;;;;5000155;28;20406;-71
2023/03/09 06:46:34;;;;;;;7.30;4.90;;;;;;;;;;5009412;28;20060;-70
2023/03/09 06:49:00;;;;;;;8.20;4.90;;;;;;;;;;5008784;28;20116;-70
2023/03/09 06:51:27;;;;;;;7.18;4.95;;;;;;;;;;5009484;28;20041;-69
2023/03/09 06:53:53;;;;;;;7.32;4.60;;;;;;;;;;5010877;28;20508;-70
2023/03/09 06:56:24;;;;;;;8.68;4.80;;;;;;;;;;5009991;28;20041;-72
2023/03/09 06:58:53;;;;;;;5.68;4.30;;;;;;;;;;5011119;28;20042;-69
2023/03/09 07:01:19;;;;;;;6.03;4.90;;;;;;;;;;5007183;28;20034;-70
2023/03/09 07:03:45;;;;;;;9.55;5.10;;;;;;;;;;5003364;28;20489;-70
2023/03/09 07:06:11;;;;;;;8.23;5.03;;;;;;;;;;5008722;28;20124;-69
2023/03/09 07:08:37;;;;;;;6.90;4.82;;;;;;;;;;5010153;28;20037;-69
2023/03/09 07:11:03;;;;;;;7.35;4.65;;;;;;;;;;5010258;28;20080;-70
2023/03/09 07:13:29;;;;;;;7.82;4.88;;;;;;;;;;5011339;28;20125;-67
2023/03/09 07:15:55;;;;;;;8.68;5.03;;;;;;;;;;5011293;28;20034;-66
2023/03/09 07:18:21;;;;;;;10.40;5.07;;;;;;;;;;5010989;28;20033;-68
2023/03/09 07:20:47;;;;;;;7.05;5.05;;;;;;;;;;5002922;28;20041;-70
2023/03/09 07:23:12;;;;;;;7.03;5.22;;;;;;;;;;5010360;28;20040;-70
2023/03/09 07:25:39;;;;;;;4.95;4.50;;;;;;;;;;5010703;28;20033;-69
2023/03/09 07:28:06;;;;;;;11.38;5.22;;;;;;;;;;5009046;28;20046;-68
2023/03/09 07:30:33;;;;;;;7.25;4.82;;;;;;;;;;5007932;28;20048;-68
2023/03/09 07:32:59;;;;;;;7.82;4.70;;;;;;;;;;5010654;28;20481;-71
2023/03/09 07:35:26;;;;;;;5.95;5.05;;;;;;;;;;5010369;28;20037;-69
2023/03/09 07:37:51;;;;;;;9.95;5.63;;;;;;;;;;5004995;28;20409;-70
2023/03/09 07:40:17;;;;;;;11.35;5.63;;;;;;;;;;5010953;28;20026;-70
2023/03/09 07:42:43;;;;;;;7.63;4.63;;;;;;;;;;5009593;28;20065;-70
2023/03/09 07:45:34;;;;;;;8.50;4.80;;;;;;;;;;5006261;28;20045;-70
2023/03/09 07:48:00;;;;;;;5.50;4.95;;;;;;;;;;5007828;28;20064;-66
2023/03/09 07:50:26;;;;;;;6.82;5.32;;;;;;;;;;5009685;28;20041;-69
2023/03/09 07:52:54;;;;;;;6.40;5.18;;;;;;;;;;5008874;28;20129;-69
2023/03/09 07:55:22;;;;;;;11.95;5.50;;;;;;;;;;5008895;28;20024;-69
2023/03/09 07:57:48;;;;;;;5.63;5.10;;;;;;;;;;5011224;28;20548;-70
2023/03/09 08:00:20;;;;;;;11.05;4.88;;;;;;;;;;5009588;28;20041;-68
2023/03/09 08:02:46;;;;;;;7.00;4.95;;;;;;;;;;5010525;28;20026;-71
2023/03/09 08:05:13;;;;;;;9.05;5.13;;;;;;;;;;5009807;28;20038;-67
2023/03/09 08:07:42;;;;;;;6.28;5.28;;;;;;;;;;5009265;28;20121;-68
2023/03/09 08:10:08;;;;;;;6.63;4.95;;;;;;;;;;5004485;28;20056;-71
2023/03/09 08:12:34;;;;;;;7.13;5.65;;;;;;;;;;5009229;28;20076;-70
2023/03/09 08:15:00;;;;;;;6.70;4.75;;;;;;;;;;4992308;28;20069;-70
2023/03/09 08:17:26;;;;;;;7.53;4.47;;;;;;;;;;5009920;28;20094;-68
2023/03/09 08:19:53;;;;;;;5.38;4.78;;;;;;;;;;5010138;28;20041;-68
2023/03/09 08:22:19;;;;;;;8.25;4.50;;;;;;;;;;5009895;28;20049;-69
2023/03/09 08:24:44;;;;;;;5.22;4.80;;;;;;;;;;5003601;28;20042;-69
2023/03/09 08:27:10;;;;;;;6.60;4.60;;;;;;;;;;5005284;28;20034;-66
2023/03/09 08:29:35;;;;;;;5.70;4.90;;;;;;;;;;5007573;28;20073;-68
2023/03/09 08:32:05;;;;;;;5.88;4.68;;;;;;;;;;5006898;28;20158;-68
2023/03/09 08:34:31;;;;;;;5.22;4.72;;;;;;;;;;5002900;28;20038;-68
2023/03/09 08:36:57;;;;;;;5.45;4.95;;;;;;;;;;5006829;28;20034;-69
2023/03/09 08:39:22;;;;;;;8.48;4.50;;;;;;;;;;5006805;28;20084;-66
2023/03/09 08:41:48;;;;;;;7.28;4.47;;;;;;;;;;5008347;28;20037;-69
2023/03/09 08:44:13;;;;;;;8.63;5.20;;;;;;;;;;5002927;28;20425;-68
2023/03/09 08:46:39;;;;;;;8.05;4.68;;;;;;;;;;5011102;28;20037;-69
2023/03/09 08:49:04;;;;;;;5.45;4.95;;;;;;;;;;5009196;28;20068;-68
2023/03/09 08:51:30;;;;;;;5.45;4.45;;;;;;;;;;5007442;28;20065;-67
2023/03/09 08:53:56;;;;;;;7.95;4.88;;;;;;;;;;5008164;28;20060;-70
2023/03/09 08:56:21;;;;;;;5.60;4.68;;;;;;;;;;5008392;28;20385;-69
2023/03/09 08:58:47;;;;;;;5.10;4.60;;;;;;;;;;5009187;28;20412;-67
2023/03/09 09:01:12;;;;;;;8.40;4.32;;;;;;;;;;5007845;28;20038;-69
2023/03/09 09:03:38;;;;;;;5.22;4.70;;;;;;;;;;5008539;28;20041;-69
2023/03/09 09:06:06;;;;;;;4.85;4.18;;;;;;;;;;5009565;28;20398;-69
2023/03/09 09:08:32;;;;;;;5.00;4.50;;;;;;;;;;4999129;28;20065;-68
2023/03/09 09:10:58;;;;;;;6.80;4.25;;;;;;;;;;5003661;28;20517;-69
2023/03/09 09:13:24;;;;;;;6.07;4.43;;;;;;;;;;5007681;28;20037;-67
2023/03/09 09:15:53;;;;;;;5.38;4.38;;;;;;;;;;5006467;28;20034;-67
2023/03/09 09:18:20;;;;;;;4.95;4.47;;;;;;;;;;5007196;28;20042;-69
2023/03/09 09:20:45;;;;;;;6.22;4.72;;;;;;;;;;5006794;28;20034;-68
2023/03/09 09:23:11;;;;;;;4.90;4.43;;;;;;;;;;5000082;28;20041;-67
2023/03/09 09:25:36;;;;;;;8.20;4.25;;;;;;;;;;5004343;28;20054;-70
2023/03/09 09:28:02;;;;;;;5.65;4.30;;;;;;;;;;5001884;28;20099;-69
2023/03/09 09:30:29;;;;;;;9.98;4.47;;;;;;;;;;5007086;28;20049;-69
2023/03/09 09:32:55;;;;;;;5.03;4.30;;;;;;;;;;5006063;28;20048;-67
2023/03/09 09:35:20;;;;;;;5.38;4.50;;;;;;;;;;5006626;28;20394;-67
2023/03/09 09:37:46;;;;;;;6.07;4.47;;;;;;;;;;5007200;28;20452;-67
2023/03/09 09:40:13;;;;;;;7.05;4.50;;;;;;;;;;5007065;28;20042;-69
2023/03/09 09:42:43;;;;;;;5.10;4.60;;;;;;;;;;5009656;28;20041;-67
2023/03/09 09:45:29;;;;;;;;;;;;;;;;;;5008229;28;20133;-68
2023/03/09 09:47:56;;;;;;;4.50;4.07;;;;;;;;;;5008634;28;19940;-71
2023/03/09 09:50:47;;;;;;;;;;;;;;;;;;;;;
2023/03/09 09:54:08;;;;;;;8.63;5.10;;;;;;;;;;4999838;28;20093;-68
2023/03/09 09:56:50;;;;;;;4.78;4.38;;;;;;;;;;5008922;28;20038;-68
2023/03/09 09:59:30;;;;;;;6.15;4.35;;;;;;;;;;5010856;28;20037;-69
2023/03/09 10:02:11;;;;;;;;;;;;;;;;;;5003932;28;20072;-66
2023/03/09 10:04:45;;;;;;;4.75;4.28;;;;;;;;;;5009262;28;19925;-67
2023/03/09 10:07:16;;;;;;;6.65;4.57;;;;;;;;;;5014082;28;20073;-67
2023/03/09 10:09:49;;;;;;;4.45;4.10;;;;;;;;;;5012596;28;20454;-69
2023/03/09 10:12:16;;;;;;;4.50;4.07;;;;;;;;;;5003891;28;20038;-67
2023/03/09 10:14:44;;;;;;;5.10;4.22;;;;;;;;;;5007812;28;20512;-68
2023/03/09 10:17:16;;;;;;;5.35;4.38;;;;;;;;;;5009431;28;20611;-68
2023/03/09 10:19:42;;;;;;;4.78;4.38;;;;;;;;;;5002383;28;20033;-67
2023/03/09 10:22:14;;;;;;;4.65;4.35;;;;;;;;;;5007299;28;20046;-70
2023/03/09 10:24:40;;;;;;;5.50;4.50;;;;;;;;;;5006561;28;20038;-70
2023/03/09 10:27:08;;;;;;;5.43;4.07;;;;;;;;;;5010076;28;20045;-66
2023/03/09 10:29:54;;;;;;;5.03;4.45;;;;;;;;;;4988318;28;20029;-69
2023/03/09 10:32:57;;;;;;;5.70;4.60;;;;;;;;;;5004395;28;20069;-70
2023/03/09 10:35:57;;;;;;;5.50;4.45;;;;;;;;;;5005864;28;20081;-69
2023/03/09 10:38:23;;;;;;;4.90;4.50;;;;;;;;;;5004983;28;20030;-67
2023/03/09 10:40:54;;;;;;;5.82;4.97;;;;;;;;;;5000919;28;20595;-68
2023/03/09 10:43:27;;;;;;;4.70;4.40;;;;;;;;;;5004706;28;20041;-68
2023/03/09 10:46:13;;;;;;;4.85;4.47;;;;;;;;;;5009443;28;20365;-70
2023/03/09 10:48:39;;;;;;;5.25;4.72;;;;;;;;;;5004796;28;20064;-70
2023/03/09 10:51:19;;;;;;;6.97;5.20;;;;;;;;;;4997650;28;20038;-69
2023/03/09 10:53:48;;;;;;;5.95;4.90;;;;;;;;;;5004811;28;20046;-69
2023/03/09 10:56:23;;;;;;;5.23;4.77;;;;;;;;;;5005367;28;20034;-69
2023/03/09 10:59:11;;;;;;;4.70;4.40;;;;;;;;;;5000679;28;20041;-70
2023/03/09 11:01:40;;;;;;;5.20;4.80;;;;;;;;;;4983878;28;20045;-69
2023/03/09 11:04:39;;;;;;;5.70;5.18;;;;;;;;;;5003539;28;20041;-68
2023/03/09 11:07:15;;;;;;;5.75;5.15;;;;;;;;;;5000909;28;20069;-70
2023/03/09 11:09:41;;;;;;;7.30;5.30;;;;;;;;;;4968179;28;20166;-69
2023/03/09 11:12:30;;;;;;;5.60;4.95;;;;;;;;;;5001395;28;20088;-68
2023/03/09 11:14:57;;;;;;;;;;;;;;;;;;4981057;28;20034;-69
2023/03/09 11:17:41;;;;;;;6.00;4.63;;;;;;;;;;4999949;28;19983;-68
2023/03/09 11:20:33;;;;;;;11.65;6.40;;;;;;;;;;4997517;28;20124;-68
2023/03/09 11:23:10;;;;;;;6.57;4.80;;;;;;;;;;5002441;28;20520;-68
2023/03/09 11:25:52;;;;;;;7.63;4.95;;;;;;;;;;5001119;28;20133;-68
2023/03/09 11:28:33;;;;;;;6.45;5.25;;;;;;;;;;5002815;28;20041;-70
2023/03/09 11:31:00;;;;;;;5.38;4.85;;;;;;;;;;5003614;28;20042;-70
2023/03/09 11:33:29;;;;;;;6.43;5.55;;;;;;;;;;5006457;28;20042;-69
2023/03/09 11:35:55;;;;;;;6.78;4.97;;;;;;;;;;5006276;28;20084;-71
2023/03/09 11:38:23;;;;;;;8.45;4.65;;;;;;;;;;5005993;28;20046;-70
2023/03/09 11:40:57;;;;;;;9.23;4.55;;;;;;;;;;5005434;28;20493;-69
2023/03/09 11:43:31;;;;;;;6.28;4.55;;;;;;;;;;5005886;28;20743;-70
2023/03/09 11:46:01;;;;;;;6.28;5.05;;;;;;;;;;5009153;28;20355;-71
2023/03/09 11:48:32;;;;;;;5.43;4.65;;;;;;;;;;5007447;28;20080;-70
2023/03/09 11:51:09;;;;;;;10.00;4.97;;;;;;;;;;5008788;28;20136;-70
2023/03/09 11:53:39;;;;;;;5.18;4.75;;;;;;;;;;4989706;28;20045;-71
2023/03/09 11:56:17;;;;;;;4.82;3.92;;;;;;;;;;4990144;28;20065;-68
2023/03/09 11:58:48;;;;;;;8.23;4.72;;;;;;;;;;4990455;28;20041;-71
2023/03/09 12:01:34;;;;;;;6.00;4.65;;;;;;;;;;5003129;28;20300;-70
2023/03/09 12:04:07;;;;;;;7.18;4.38;;;;;;;;;;5005155;28;20046;-69
2023/03/09 12:06:36;;;;;;;9.13;4.22;;;;;;;;;;5002427;28;20049;-68
2023/03/09 12:09:07;;;;;;;6.13;4.78;;;;;;;;;;4990567;28;20112;-69
2023/03/09 12:11:41;;;;;;;7.30;4.38;;;;;;;;;;5008476;28;20401;-69
2023/03/09 12:14:19;;;;;;;6.40;4.10;;;;;;;;;;4994809;28;20052;-67
2023/03/09 12:16:48;;;;;;;5.00;4.53;;;;;;;;;;5009702;28;20042;-70
2023/03/09 12:19:18;;;;;;;6.72;4.55;;;;;;;;;;5009227;28;20053;-68
2023/03/09 12:21:49;;;;;;;4.57;4.20;;;;;;;;;;5001821;28;20038;-71
2023/03/09 12:24:23;;;;;;;5.35;4.95;;;;;;;;;;5002932;28;20045;-69
2023/03/09 12:26:59;;;;;;;7.38;5.05;;;;;;;;;;5003912;28;20079;-67
2023/03/09 12:29:35;;;;;;;5.43;5.00;;;;;;;;;;5007093;28;20029;-67
2023/03/09 12:32:10;;;;;;;6.38;4.85;;;;;;;;;;5013295;28;20034;-70
2023/03/09 12:34:40;;;;;;;5.47;4.65;;;;;;;;;;5020734;28;20069;-67
2023/03/09 12:37:28;;;;;;;7.53;5.22;;;;;;;;;;5006970;28;20045;-69
2023/03/09 12:40:04;;;;;;;6.50;4.68;;;;;;;;;;4998554;28;20033;-68
2023/03/09 12:42:39;;;;;;;7.07;5.05;;;;;;;;;;5000422;28;20117;-70
2023/03/09 12:45:10;;;;;;;5.68;4.80;;;;;;;;;;5013244;28;20038;-70
2023/03/09 12:47:44;;;;;;;4.93;4.40;;;;;;;;;;5006790;28;20042;-69
2023/03/09 12:50:33;;;;;;;5.18;4.68;;;;;;;;;;5008904;28;20667;-68
2023/03/09 12:53:10;;;;;;;6.90;4.85;;;;;;;;;;5009300;28;20069;-70
2023/03/09 12:55:36;;;;;;;8.70;5.03;;;;;;;;;;5008988;28;20560;-67
2023/03/09 12:58:17;;;;;;;6.82;4.63;;;;;;;;;;5006459;28;20121;-70
2023/03/09 13:01:00;;;;;;;5.45;4.95;;;;;;;;;;5007323;28;20069;-68
2023/03/09 13:03:31;;;;;;;5.65;4.55;;;;;;;;;;5009218;28;20046;-70
2023/03/09 13:05:59;;;;;;;5.38;4.78;;;;;;;;;;5008046;28;20088;-68
2023/03/09 13:08:33;;;;;;;6.80;4.50;;;;;;;;;;5008974;28;20048;-68
2023/03/09 13:11:24;;;;;;;7.78;5.05;;;;;;;;;;5010591;28;20037;-67
2023/03/09 13:13:56;;;;;;;5.35;4.68;;;;;;;;;;5007706;28;20053;-70
2023/03/09 13:16:31;;;;;;;8.48;4.78;;;;;;;;;;5006954;28;20049;-70
2023/03/09 13:19:18;;;;;;;7.25;4.78;;;;;;;;;;5003183;28;20042;-69
2023/03/09 13:22:11;;;;;;;6.72;4.53;;;;;;;;;;5006505;28;20045;-70
2023/03/09 13:24:40;;;;;;;6.30;4.53;;;;;;;;;;5002176;28;20312;-70
2023/03/09 13:27:08;;;;;;;6.50;4.85;;;;;;;;;;5008765;28;20391;-68
2023/03/09 13:29:37;;;;;;;6.35;4.60;;;;;;;;;;4998384;28;20474;-70
2023/03/09 13:32:05;;;;;;;6.13;4.57;;;;;;;;;;5005777;28;20049;-70
2023/03/09 13:34:35;;;;;;;8.60;4.60;;;;;;;;;;5008259;28;20049;-70
2023/03/09 13:37:06;;;;;;;5.63;4.70;;;;;;;;;;5004629;28;20470;-70
2023/03/09 13:39:33;;;;;;;5.18;4.47;;;;;;;;;;5006027;28;20038;-67
2023/03/09 13:42:03;;;;;;;6.35;4.60;;;;;;;;;;5004098;28;20057;-70
2023/03/09 13:44:30;;;;;;;6.32;4.80;;;;;;;;;;5008962;28;20544;-68
2023/03/09 13:46:57;;;;;;;9.13;4.90;;;;;;;;;;5002344;28;20041;-70
2023/03/09 13:49:28;;;;;;;5.30;4.53;;;;;;;;;;5006649;28;20029;-69
2023/03/09 13:51:56;;;;;;;7.57;4.80;;;;;;;;;;5007894;28;20766;-71
2023/03/09 13:54:36;;;;;;;7.65;4.68;;;;;;;;;;5013103;28;20103;-68
2023/03/09 13:57:20;;;;;;;5.45;4.72;;;;;;;;;;5017748;28;20236;-70
2023/03/09 13:59:57;;;;;;;6.75;4.80;;;;;;;;;;5019795;28;20069;-70
2023/03/09 14:02:33;;;;;;;6.35;4.40;;;;;;;;;;4995239;28;20461;-68
2023/03/09 14:04:58;;;;;;;5.00;4.40;;;;;;;;;;4988794;28;20336;-69
2023/03/09 14:07:36;;;;;;;7.78;4.53;;;;;;;;;;5002929;28;20034;-70
2023/03/09 14:10:14;;;;;;;6.65;4.10;;;;;;;;;;4998541;28;20114;-70
2023/03/09 14:12:41;;;;;;;8.38;5.07;;;;;;;;;;4996527;28;20046;-67
2023/03/09 14:15:17;;;;;;;5.60;5.10;;;;;;;;;;4996574;28;20255;-70
2023/03/09 14:17:43;;;;;;;7.05;4.60;;;;;;;;;;5003762;28;20038;-70
2023/03/09 14:20:18;;;;;;;5.05;4.57;;;;;;;;;;5002432;28;20033;-69
2023/03/09 14:22:44;;;;;;;5.90;4.47;;;;;;;;;;5006633;28;20034;-69
2023/03/09 14:25:24;;;;;;;10.63;5.03;;;;;;;;;;4987814;28;20415;-69
2023/03/09 14:27:54;;;;;;;5.85;4.70;;;;;;;;;;5007287;28;20120;-68
2023/03/09 14:30:29;;;;;;;5.13;4.55;;;;;;;;;;5007885;28;20038;-70
2023/03/09 14:32:59;;;;;;;6.22;4.75;;;;;;;;;;5007728;28;20062;-70
2023/03/09 14:35:38;;;;;;;6.43;4.80;;;;;;;;;;5008847;28;20401;-69
2023/03/09 14:38:16;;;;;;;;;;;;;;;;;;5004290;28;20033;-69
2023/03/09 14:40:42;;;;;;;6.38;5.00;;;;;;;;;;5008431;28;20054;-71
2023/03/09 14:43:34;;;;;;;6.32;4.93;;;;;;;;;;5006375;28;20038;-70
2023/03/09 14:46:18;;;;;;;4.80;4.40;;;;;;;;;;4998337;28;20088;-70
2023/03/09 14:48:53;;;;;;;5.32;4.72;;;;;;;;;;5008205;28;20922;-69
2023/03/09 14:51:26;;;;;;;6.13;5.18;;;;;;;;;;5005516;28;20058;-70
2023/03/09 14:53:53;;;;;;;4.95;4.50;;;;;;;;;;4998637;28;20441;-68
2023/03/09 14:56:19;;;;;;;5.38;4.68;;;;;;;;;;5001135;28;20500;-69
2023/03/09 14:58:44;;;;;;;6.78;4.70;;;;;;;;;;5001711;28;20117;-70
2023/03/09 15:01:10;;;;;;;6.40;4.97;;;;;;;;;;5004093;28;20030;-70
2023/03/09 15:03:36;;;;;;;5.70;4.55;;;;;;;;;;5001861;28;20392;-71